Time;durP1;ratioP1;P1;durP2;ratioP2;P2;SDS_P1;SDS_P2;PMS_P1;PMS_P2;Temp;Humidity;BMP_temperature;BMP_pressure;BME280_temperature;BME280_humidity;BME280_pressure;Samples;Min_cycle;Max_cycle;Signal;HPM_P1;HPM_P2
2023/06/20 00:00:40;;;;;;;6.20;4.50;;;17.40;99.90;;;;;;5113928;28;20100;-66
2023/06/20 00:03:05;;;;;;;9.25;5.10;;;18.20;99.90;;;;;;5113882;28;20028;-64
2023/06/20 00:05:31;;;;;;;7.30;4.38;;;17.40;99.90;;;;;;5095701;28;20035;-64
2023/06/20 00:07:56;;;;;;;6.90;4.38;;;17.40;13.80;;;;;;5113548;28;20039;-64
2023/06/20 00:10:22;;;;;;;7.53;4.55;;;17.40;1.00;;;;;;5113807;28;20043;-64
2023/06/20 00:12:48;;;;;;;7.85;4.30;;;17.30;1.00;;;;;;5113513;28;20039;-64
2023/06/20 00:15:13;;;;;;;8.73;5.00;;;17.30;99.90;;;;;;5113523;28;20031;-64
2023/06/20 00:17:40;;;;;;;7.80;4.53;;;17.30;26.40;;;;;;5112446;28;20048;-64
2023/06/20 00:20:07;;;;;;;6.63;3.72;;;17.20;99.90;;;;;;5095539;28;20073;-64
2023/06/20 00:22:36;;;;;;;6.22;4.40;;;17.30;99.90;;;;;;5113632;28;20513;-64
2023/06/20 00:25:05;;;;;;;7.30;4.38;;;17.20;1.00;;;;;;5113526;28;20031;-64
2023/06/20 00:27:31;;;;;;;7.18;4.57;;;17.20;1.00;;;;;;5113595;28;20123;-64
2023/06/20 00:29:56;;;;;;;7.35;4.88;;;17.70;1.00;;;;;;5113556;28;20071;-64
2023/06/20 00:32:22;;;;;;;8.65;4.53;;;17.20;1.00;;;;;;5113513;28;20035;-64
2023/06/20 00:34:48;;;;;;;11.60;4.82;;;17.20;1.00;;;;;;5113419;28;20123;-64
2023/06/20 00:37:13;;;;;;;7.07;4.65;;;17.10;1.00;;;;;;5113084;28;20490;-64
2023/06/20 00:39:39;;;;;;;9.35;4.65;;;17.10;1.00;;;;;;5113456;28;20040;-64
2023/06/20 00:42:05;;;;;;;15.77;5.15;;;17.30;1.00;;;;;;5095011;28;20086;-64
2023/06/20 00:44:30;;;;;;;7.65;4.55;;;17.00;99.90;;;;;;5113386;28;20391;-65
2023/06/20 00:46:57;;;;;;;10.60;4.85;;;17.00;99.90;;;;;;5113362;28;20039;-66
2023/06/20 00:49:23;;;;;;;7.40;4.60;;;17.00;94.30;;;;;;5112954;28;20046;-64
2023/06/20 00:51:49;;;;;;;5.82;4.25;;;17.00;1.00;;;;;;5094855;28;20118;-64
2023/06/20 00:54:15;;;;;;;10.98;4.88;;;17.00;99.90;;;;;;5113332;28;20043;-64
2023/06/20 00:56:42;;;;;;;6.45;3.75;;;17.00;24.20;;;;;;5112947;28;20394;-64
2023/06/20 00:59:08;;;;;;;8.43;4.22;;;16.80;1.00;;;;;;5113181;28;20390;-64
2023/06/20 01:01:33;;;;;;;8.15;5.00;;;16.80;1.00;;;;;;5113189;28;20035;-64
2023/06/20 01:04:00;;;;;;;7.47;3.85;;;16.90;99.90;;;;;;5113228;28;20035;-64
2023/06/20 01:06:44;;;;;;;13.18;5.55;;;16.90;1.00;;;;;;5079744;28;20447;-64
2023/06/20 01:09:23;;;;;;;7.43;4.55;;;16.90;99.90;;;;;;5117315;28;20093;-64
2023/06/20 01:11:51;;;;;;;7.82;4.60;;;16.90;99.90;;;;;;5117280;28;20115;-64
2023/06/20 01:14:26;;;;;;;5.88;3.65;;;16.90;99.90;;;;;;5116929;28;20083;-64
2023/06/20 01:17:08;;;;;;;6.70;4.07;;;16.90;1.00;;;;;;5098464;28;20058;-65
2023/06/20 01:20:12;;;;;;;9.95;4.55;;;17.00;99.90;;;;;;5116776;28;20046;-64
2023/06/20 01:22:56;;;;;;;5.53;4.00;;;17.00;99.90;;;;;;5117007;28;20398;-64
2023/06/20 01:25:46;;;;;;;9.20;4.88;;;17.00;1.00;;;;;;5116975;28;20492;-64
2023/06/20 01:28:28;;;;;;;6.40;4.90;;;17.00;31.20;;;;;;5116907;28;20384;-65
2023/06/20 01:31:05;;;;;;;8.27;4.85;;;16.90;99.90;;;;;;5116836;28;20043;-64
2023/06/20 01:33:38;;;;;;;11.48;5.10;;;16.70;99.90;;;;;;5116824;28;20089;-64
2023/06/20 01:36:06;;;;;;;12.07;4.00;;;17.00;53.00;;;;;;5116478;28;20106;-64
2023/06/20 01:38:34;;;;;;;5.78;4.25;;;16.90;13.00;;;;;;5116617;28;20445;-65
2023/06/20 01:41:02;;;;;;;6.70;4.20;;;17.00;18.80;;;;;;5098533;28;20044;-65
2023/06/20 01:43:30;;;;;;;6.70;4.93;;;17.70;19.10;;;;;;5116377;28;20141;-64
2023/06/20 01:45:57;;;;;;;10.05;5.15;;;16.80;99.90;;;;;;5116562;28;20075;-64
2023/06/20 01:48:25;;;;;;;6.05;4.15;;;16.60;99.90;;;;;;5116559;28;20079;-64
2023/06/20 01:50:52;;;;;;;7.53;4.50;;;17.40;19.20;;;;;;5116383;28;20039;-64
2023/06/20 01:53:20;;;;;;;6.53;4.15;;;16.90;50.90;;;;;;5116198;28;20081;-64
2023/06/20 01:55:47;;;;;;;6.22;4.55;;;16.90;99.90;;;;;;5116059;28;20044;-64
2023/06/20 01:58:15;;;;;;;9.82;5.18;;;16.90;99.90;;;;;;5116208;28;20399;-64
2023/06/20 02:00:42;;;;;;;9.20;5.53;;;17.20;99.90;;;;;;5116276;28;20031;-64
2023/06/20 02:03:11;;;;;;;7.70;4.85;;;16.80;99.90;;;;;;5116277;28;20093;-64
2023/06/20 02:05:40;;;;;;;9.52;4.38;;;16.80;99.90;;;;;;5097819;28;20046;-64
2023/06/20 02:08:06;;;;;;;9.98;5.35;;;16.80;99.90;;;;;;5116156;28;20047;-64
2023/06/20 02:10:34;;;;;;;15.05;5.15;;;16.60;99.90;;;;;;5116100;28;20081;-64
2023/06/20 02:13:00;;;;;;;11.45;5.00;;;16.80;99.90;;;;;;5097520;28;20090;-66
2023/06/20 02:15:28;;;;;;;6.95;5.00;;;16.80;12.50;;;;;;5115739;28;20097;-64
2023/06/20 02:17:54;;;;;;;9.25;5.43;;;16.80;99.90;;;;;;5096373;28;20051;-64
2023/06/20 02:20:20;;;;;;;8.27;4.97;;;16.80;87.60;;;;;;5115653;28;20161;-64
2023/06/20 02:22:47;;;;;;;8.15;5.88;;;16.80;99.90;;;;;;5115874;28;20171;-64
2023/06/20 02:25:21;;;;;;;7.65;4.72;;;16.70;99.90;;;;;;5115775;28;20028;-64
2023/06/20 02:27:48;;;;;;;8.82;5.68;;;16.50;52.10;;;;;;5115684;28;20040;-64
2023/06/20 02:30:15;;;;;;;8.52;5.15;;;16.70;53.90;;;;;;5097203;28;20113;-64
2023/06/20 02:32:42;;;;;;;8.98;4.85;;;16.80;99.90;;;;;;5097448;28;20122;-64
2023/06/20 02:35:10;;;;;;;10.93;6.00;;;16.80;1.00;;;;;;5097330;28;20054;-69
2023/06/20 02:37:39;;;;;;;7.97;5.32;;;16.80;99.90;;;;;;5115429;28;20048;-66
2023/06/20 02:40:06;;;;;;;8.13;5.07;;;17.20;1.00;;;;;;5115559;28;20034;-64
2023/06/20 02:42:31;;;;;;;11.50;5.72;;;16.90;1.00;;;;;;5115521;28;20035;-64
2023/06/20 02:44:57;;;;;;;8.23;5.35;;;16.80;99.90;;;;;;5115518;28;20051;-64
2023/06/20 02:47:51;;;;;;;10.15;5.18;;;18.00;1.00;;;;;;5115410;28;20036;-64
2023/06/20 02:50:52;;;;;;;11.05;5.70;;;16.90;99.90;;;;;;5097232;28;20046;-64
2023/06/20 02:53:33;;;;;;;12.48;6.40;;;17.00;99.90;;;;;;5032292;28;20037;-64
2023/06/20 02:56:09;;;;;;;8.63;5.97;;;16.80;1.00;;;;;;5088689;28;20398;-64
2023/06/20 02:58:37;;;;;;;9.00;5.85;;;16.80;1.00;;;;;;5113540;28;20120;-64
2023/06/20 03:01:03;;;;;;;8.00;5.68;;;16.80;99.90;;;;;;5113580;28;20122;-64
2023/06/20 03:03:51;;;;;;;8.40;5.28;;;16.80;99.90;;;;;;5114726;28;20101;-64
2023/06/20 03:06:17;;;;;;;12.57;5.93;;;16.70;99.90;;;;;;5115098;28;20031;-64
2023/06/20 03:08:49;;;;;;;8.10;5.55;;;16.70;1.00;;;;;;5114958;28;20483;-64
2023/06/20 03:11:15;;;;;;;7.40;4.95;;;16.70;99.90;;;;;;5096781;28;20043;-64
2023/06/20 03:13:41;;;;;;;9.35;5.70;;;16.80;99.90;;;;;;5114806;28;20036;-67
2023/06/20 03:16:09;;;;;;;15.95;6.82;;;16.80;1.00;;;;;;5114572;28;20059;-65
2023/06/20 03:18:36;;;;;;;13.30;6.00;;;16.80;1.00;;;;;;5114692;28;20457;-64
2023/06/20 03:21:01;;;;;;;8.55;5.65;;;16.80;1.00;;;;;;5114721;28;20118;-64
2023/06/20 03:23:27;;;;;;;9.18;5.50;;;16.70;1.00;;;;;;5114717;28;20126;-64
2023/06/20 03:25:53;;;;;;;10.68;6.05;;;16.80;99.90;;;;;;5114652;28;20035;-64
2023/06/20 03:28:18;;;;;;;11.65;5.93;;;16.70;46.60;;;;;;5096327;28;20470;-64
2023/06/20 03:30:44;;;;;;;11.05;6.15;;;16.70;99.90;;;;;;5114468;28;20120;-64
2023/06/20 03:33:10;;;;;;;8.05;5.90;;;16.70;1.00;;;;;;5114433;28;20075;-64
2023/06/20 03:35:36;;;;;;;9.63;6.38;;;17.30;16.20;;;;;;5096240;28;20031;-64
2023/06/20 03:38:02;;;;;;;9.93;5.93;;;16.70;12.70;;;;;;5095846;28;20047;-64
2023/06/20 03:40:27;;;;;;;9.93;5.25;;;17.00;36.70;;;;;;5114053;28;20080;-64
2023/06/20 03:42:53;;;;;;;14.75;6.45;;;17.50;1.00;;;;;;5114315;28;20481;-64
2023/06/20 03:45:19;;;;;;;9.93;6.18;;;16.70;99.90;;;;;;5114302;28;20111;-64
2023/06/20 03:47:44;;;;;;;13.20;6.47;;;16.70;1.00;;;;;;5114271;28;20051;-64
2023/06/20 03:50:10;;;;;;;9.95;5.88;;;16.90;99.90;;;;;;5114187;28;20575;-64
2023/06/20 03:52:36;;;;;;;11.35;6.85;;;16.80;1.00;;;;;;5114115;28;20039;-64
2023/06/20 03:55:01;;;;;;;10.05;6.50;;;16.80;99.90;;;;;;5114116;28;20028;-64
2023/06/20 03:57:27;;;;;;;19.48;5.78;;;16.70;1.00;;;;;;5113999;28;20082;-65
2023/06/20 03:59:52;;;;;;;14.80;6.85;;;16.80;1.00;;;;;;5095827;28;20040;-64
2023/06/20 04:02:18;;;;;;;7.95;5.63;;;16.80;89.80;;;;;;5113959;28;20046;-65
2023/06/20 04:04:49;;;;;;;14.00;6.82;;;16.90;99.90;;;;;;5113931;28;20039;-64
2023/06/20 04:07:21;;;;;;;9.45;6.32;;;16.80;1.00;;;;;;5113569;28;20040;-64
2023/06/20 04:09:49;;;;;;;11.88;6.63;;;16.80;99.90;;;;;;5113514;28;20043;-64
2023/06/20 04:12:15;;;;;;;11.63;6.13;;;16.80;99.90;;;;;;5113824;28;20498;-64
2023/06/20 04:14:40;;;;;;;9.57;6.13;;;16.80;99.90;;;;;;5095257;28;20036;-64
2023/06/20 04:17:06;;;;;;;11.45;5.88;;;16.80;99.90;;;;;;5113314;28;20526;-64
2023/06/20 04:19:33;;;;;;;9.77;6.10;;;16.90;99.90;;;;;;5113354;28;20483;-64
2023/06/20 04:21:59;;;;;;;9.90;6.00;;;16.80;99.90;;;;;;5113646;28;20032;-64
2023/06/20 04:24:25;;;;;;;9.02;6.25;;;16.90;99.90;;;;;;5113687;28;20119;-64
2023/06/20 04:26:51;;;;;;;8.43;5.93;;;16.90;1.00;;;;;;5113592;28;20451;-64
2023/06/20 04:29:16;;;;;;;15.88;6.78;;;17.00;99.90;;;;;;5112466;28;20032;-65
2023/06/20 04:31:42;;;;;;;9.88;6.70;;;17.00;1.00;;;;;;5113509;28;20036;-65
2023/06/20 04:34:08;;;;;;;15.50;7.18;;;16.90;99.90;;;;;;5113560;28;20044;-64
2023/06/20 04:36:34;;;;;;;10.00;6.68;;;17.00;76.00;;;;;;5112011;28;20044;-64
2023/06/20 04:39:00;;;;;;;11.85;6.47;;;17.10;99.90;;;;;;5113453;28;20111;-64
2023/06/20 04:41:25;;;;;;;10.25;6.35;;;17.10;99.90;;;;;;5112934;28;20031;-65
2023/06/20 04:43:51;;;;;;;17.67;7.18;;;17.10;99.90;;;;;;5113427;28;20042;-65
2023/06/20 04:46:17;;;;;;;14.20;7.07;;;17.20;99.90;;;;;;5113407;28;20039;-64
2023/06/20 04:48:44;;;;;;;12.10;5.97;;;17.60;99.90;;;;;;5113412;28;20039;-64
2023/06/20 04:51:10;;;;;;;9.18;5.65;;;17.20;99.90;;;;;;5113398;28;20039;-64
2023/06/20 04:53:36;;;;;;;11.55;7.55;;;17.40;99.90;;;;;;5112109;28;20135;-65
2023/06/20 04:56:03;;;;;;;9.30;5.95;;;17.40;99.90;;;;;;5113330;28;20368;-64
2023/06/20 04:58:29;;;;;;;10.35;6.80;;;17.50;13.60;;;;;;5113111;28;20107;-64
2023/06/20 05:00:56;;;;;;;10.13;6.25;;;17.50;7.70;;;;;;5112982;28;20044;-64
2023/06/20 05:03:22;;;;;;;9.55;6.22;;;17.60;99.90;;;;;;5112907;28;20035;-65
2023/06/20 05:05:48;;;;;;;10.10;6.75;;;17.70;75.30;;;;;;5113223;28;20049;-65
2023/06/20 05:08:13;;;;;;;11.63;6.78;;;17.80;99.90;;;;;;5113211;28;20035;-64
2023/06/20 05:10:39;;;;;;;7.82;5.93;;;17.80;1.00;;;;;;5113089;28;20044;-64
2023/06/20 05:13:05;;;;;;;10.23;6.03;;;17.90;99.90;;;;;;5113227;28;20403;-64
2023/06/20 05:15:30;;;;;;;10.95;6.28;;;17.90;1.00;;;;;;5112694;28;20060;-64
2023/06/20 05:17:56;;;;;;;9.05;6.22;;;18.00;1.00;;;;;;5113084;28;20051;-64
2023/06/20 05:20:22;;;;;;;7.63;5.65;;;18.10;1.00;;;;;;5094923;28;20036;-64
2023/06/20 05:22:47;;;;;;;14.02;6.78;;;18.10;99.90;;;;;;5113069;28;20483;-64
2023/06/20 05:25:13;;;;;;;9.77;6.25;;;18.20;99.90;;;;;;5112710;28;20043;-64
2023/06/20 05:27:39;;;;;;;11.05;6.25;;;18.30;99.90;;;;;;5112988;28;20046;-64
2023/06/20 05:30:05;;;;;;;11.75;5.57;;;18.40;99.90;;;;;;5113032;28;20067;-64
2023/06/20 05:32:31;;;;;;;11.57;6.78;;;18.40;99.90;;;;;;5112684;28;20418;-65
2023/06/20 05:34:56;;;;;;;12.77;6.40;;;18.90;99.90;;;;;;5113032;28;20039;-69
2023/06/20 05:37:22;;;;;;;9.98;6.57;;;18.50;99.90;;;;;;5112906;28;20040;-67
2023/06/20 05:39:48;;;;;;;9.07;5.25;;;18.50;92.40;;;;;;5112925;28;20042;-69
2023/06/20 05:42:13;;;;;;;9.98;5.43;;;18.60;1.00;;;;;;5094483;28;20089;-68
2023/06/20 05:44:39;;;;;;;8.77;5.43;;;18.60;1.00;;;;;;5112916;28;20464;-64
2023/06/20 05:47:05;;;;;;;12.85;7.32;;;18.60;1.00;;;;;;5112892;28;20496;-67
2023/06/20 05:49:31;;;;;;;13.40;5.88;;;18.70;1.00;;;;;;5094439;28;20065;-66
2023/06/20 05:51:57;;;;;;;8.98;5.60;;;18.70;1.00;;;;;;5094873;28;20123;-65
2023/06/20 05:54:24;;;;;;;8.80;5.15;;;18.90;99.90;;;;;;5115707;28;20108;-63
2023/06/20 05:56:50;;;;;;;7.00;4.75;;;19.30;99.90;;;;;;5116403;28;20047;-63
2023/06/20 05:59:16;;;;;;;7.80;4.95;;;19.10;99.90;;;;;;5116017;28;20483;-64
2023/06/20 06:01:41;;;;;;;8.68;5.18;;;19.10;99.90;;;;;;5116328;28;20088;-65
2023/06/20 06:04:07;;;;;;;12.48;5.60;;;19.30;99.90;;;;;;5116301;28;20079;-65
2023/06/20 06:06:33;;;;;;;7.88;5.63;;;19.30;99.90;;;;;;5116303;28;20497;-64
2023/06/20 06:08:59;;;;;;;6.95;4.78;;;19.60;99.90;;;;;;5116171;28;20043;-64
2023/06/20 06:11:25;;;;;;;8.35;5.22;;;19.40;99.90;;;;;;5115744;28;20040;-66
2023/06/20 06:13:53;;;;;;;8.00;5.05;;;19.50;99.90;;;;;;5116593;28;20042;-66
2023/06/20 06:16:19;;;;;;;8.30;5.07;;;19.60;99.90;;;;;;5115608;28;20442;-68
2023/06/20 06:18:45;;;;;;;8.50;5.05;;;19.60;99.90;;;;;;5115743;28;20036;-68
2023/06/20 06:21:10;;;;;;;11.13;4.88;;;19.90;99.90;;;;;;5115883;28;20482;-65
2023/06/20 06:23:37;;;;;;;9.43;5.43;;;19.50;99.90;;;;;;5115819;28;20391;-66
2023/06/20 06:26:04;;;;;;;6.53;4.30;;;19.70;99.90;;;;;;5115875;28;20398;-65
2023/06/20 06:28:30;;;;;;;9.20;5.68;;;19.80;99.90;;;;;;5115872;28;20055;-66
2023/06/20 06:30:59;;;;;;;6.57;4.80;;;19.50;99.90;;;;;;5115771;28;20032;-66
2023/06/20 06:33:27;;;;;;;6.90;4.82;;;19.90;99.90;;;;;;5115705;28;20120;-65
2023/06/20 06:35:55;;;;;;;8.48;4.93;;;20.00;99.90;;;;;;5115577;28;20123;-66
2023/06/20 06:38:21;;;;;;;8.40;5.00;;;20.00;99.90;;;;;;5115519;28;20079;-65
2023/06/20 06:40:47;;;;;;;6.18;4.15;;;20.90;99.90;;;;;;5115582;28;20043;-67
2023/06/20 06:43:13;;;;;;;8.73;4.75;;;20.70;99.90;;;;;;5097329;28;20032;-66
2023/06/20 06:45:39;;;;;;;8.60;4.70;;;20.80;99.90;;;;;;5115154;28;20038;-68
2023/06/20 06:48:05;;;;;;;6.05;4.15;;;20.50;99.90;;;;;;5115290;28;20427;-67
2023/06/20 06:50:30;;;;;;;7.68;4.82;;;20.80;93.50;;;;;;5096855;28;20119;-66
2023/06/20 06:52:56;;;;;;;5.90;5.00;;;21.30;88.20;;;;;;5115186;28;20039;-71
2023/06/20 06:55:22;;;;;;;7.05;4.63;;;20.70;81.20;;;;;;5096822;28;20047;-66
2023/06/20 06:57:47;;;;;;;7.00;5.13;;;21.00;72.10;;;;;;5096692;28;20522;-67
2023/06/20 07:00:14;;;;;;;5.90;3.97;;;21.50;63.20;;;;;;5115258;28;20497;-66
2023/06/20 07:02:41;;;;;;;10.40;4.97;;;21.10;62.70;;;;;;5113863;28;20590;-66
2023/06/20 07:05:08;;;;;;;9.45;4.93;;;21.10;49.10;;;;;;5114511;28;20067;-66
2023/06/20 07:07:33;;;;;;;8.38;5.22;;;21.20;52.90;;;;;;5115251;28;20092;-66
2023/06/20 07:09:59;;;;;;;5.88;4.15;;;21.40;53.10;;;;;;5114583;28;20036;-67
2023/06/20 07:12:24;;;;;;;8.82;4.78;;;21.30;46.90;;;;;;5114824;28;20164;-66
2023/06/20 07:14:52;;;;;;;7.00;4.97;;;21.50;37.70;;;;;;5114660;28;20504;-66
2023/06/20 07:17:17;;;;;;;5.95;4.65;;;21.50;36.90;;;;;;5114189;28;20418;-67
2023/06/20 07:19:44;;;;;;;8.68;5.28;;;21.50;29.00;;;;;;5114552;28;20051;-66
2023/06/20 07:22:09;;;;;;;6.30;4.93;;;21.50;26.20;;;;;;5114204;28;20122;-67
2023/06/20 07:24:35;;;;;;;12.77;4.88;;;21.60;31.90;;;;;;5096409;28;20110;-66
2023/06/20 07:27:01;;;;;;;11.02;4.82;;;21.60;29.00;;;;;;5113245;28;20043;-66
2023/06/20 07:29:26;;;;;;;6.03;3.97;;;21.30;29.40;;;;;;5114105;28;20043;-66
2023/06/20 07:31:52;;;;;;;6.78;4.70;;;21.70;32.20;;;;;;5114396;28;20043;-65
2023/06/20 07:34:17;;;;;;;6.72;4.90;;;21.70;33.10;;;;;;5114327;28;20032;-65
2023/06/20 07:36:43;;;;;;;8.48;5.28;;;21.80;31.90;;;;;;5113935;28;20042;-65
2023/06/20 07:39:09;;;;;;;7.57;4.95;;;21.80;32.00;;;;;;5112409;28;20097;-66
2023/06/20 07:41:34;;;;;;;8.68;4.80;;;21.80;26.60;;;;;;5114246;28;20119;-67
2023/06/20 07:44:00;;;;;;;9.63;4.50;;;21.80;27.90;;;;;;5112662;28;20043;-65
2023/06/20 07:46:26;;;;;;;7.43;5.00;;;21.80;27.70;;;;;;5114145;28;20032;-65
2023/06/20 07:48:51;;;;;;;6.00;4.18;;;21.80;29.50;;;;;;5078876;28;20077;-65
2023/06/20 07:51:17;;;;;;;6.93;4.70;;;21.80;32.00;;;;;;5114011;28;20054;-66
2023/06/20 07:53:42;;;;;;;13.63;5.32;;;22.00;28.00;;;;;;5113938;28;20491;-65
2023/06/20 07:56:08;;;;;;;9.30;4.90;;;22.00;30.90;;;;;;5114029;28;20042;-65
2023/06/20 07:58:33;;;;;;;6.97;4.30;;;21.90;33.30;;;;;;5113934;28;20028;-65
2023/06/20 08:01:00;;;;;;;10.73;4.80;;;22.00;32.70;;;;;;5114003;28;20099;-65
2023/06/20 08:03:26;;;;;;;7.57;4.35;;;22.00;30.20;;;;;;5113961;28;20047;-65
2023/06/20 08:05:52;;;;;;;9.18;5.05;;;21.80;29.10;;;;;;5113876;28;20046;-65
2023/06/20 08:08:18;;;;;;;8.50;5.05;;;21.70;28.70;;;;;;5113789;28;20511;-65
2023/06/20 08:10:43;;;;;;;7.05;4.70;;;21.70;30.50;;;;;;5113573;28;20463;-65
2023/06/20 08:13:09;;;;;;;7.85;5.03;;;21.60;26.50;;;;;;5113612;28;20398;-65
2023/06/20 08:15:35;;;;;;;6.50;4.88;;;21.50;34.20;;;;;;5112595;28;20058;-65
2023/06/20 08:18:00;;;;;;;6.20;4.80;;;21.50;35.90;;;;;;5113503;28;20454;-74
2023/06/20 08:20:26;;;;;;;7.43;4.75;;;21.50;40.80;;;;;;5113631;28;20039;-65
2023/06/20 08:22:51;;;;;;;10.52;4.93;;;21.50;42.00;;;;;;5113575;28;20063;-65
2023/06/20 08:25:17;;;;;;;6.05;4.80;;;21.60;42.90;;;;;;5112476;28;20126;-66
2023/06/20 08:27:42;;;;;;;7.78;5.03;;;21.10;42.00;;;;;;5113477;28;20119;-65
2023/06/20 08:30:09;;;;;;;7.32;4.90;;;21.70;43.80;;;;;;5113440;28;20043;-65
2023/06/20 08:32:36;;;;;;;7.72;5.20;;;21.80;44.90;;;;;;5113309;28;20039;-65
2023/06/20 08:35:02;;;;;;;7.50;4.95;;;21.80;46.80;;;;;;5113015;28;20047;-65
2023/06/20 08:37:28;;;;;;;7.60;5.35;;;21.90;51.10;;;;;;5113252;28;20125;-66
2023/06/20 08:39:53;;;;;;;6.75;4.88;;;22.00;43.40;;;;;;5113257;28;20410;-65
2023/06/20 08:42:19;;;;;;;7.85;4.60;;;22.20;41.80;;;;;;5113214;28;20122;-65
2023/06/20 08:44:45;;;;;;;7.40;5.13;;;22.30;41.50;;;;;;5113231;28;20036;-66
2023/06/20 08:47:11;;;;;;;6.32;4.55;;;22.30;35.60;;;;;;5113200;28;20058;-66
2023/06/20 08:49:36;;;;;;;7.10;4.80;;;22.40;41.00;;;;;;5095205;28;20471;-67
2023/06/20 08:52:08;;;;;;;7.70;4.85;;;22.40;34.00;;;;;;5113207;28;20042;-67
2023/06/20 08:54:38;;;;;;;6.03;4.28;;;22.60;34.20;;;;;;5113210;28;20040;-68
2023/06/20 08:57:06;;;;;;;8.65;4.28;;;22.90;31.50;;;;;;5113139;28;20051;-67
2023/06/20 08:59:33;;;;;;;6.30;3.90;;;23.10;28.00;;;;;;5113058;28;20047;-67
2023/06/20 09:01:59;;;;;;;5.65;3.95;;;23.30;26.60;;;;;;5113072;28;20042;-66
2023/06/20 09:04:27;;;;;;;6.25;4.32;;;23.50;24.40;;;;;;5111857;28;20126;-66
2023/06/20 09:06:53;;;;;;;9.82;4.40;;;23.70;22.80;;;;;;5113000;28;20128;-67
2023/06/20 09:09:20;;;;;;;5.85;3.88;;;23.80;23.80;;;;;;5112822;28;20039;-67
2023/06/20 09:11:52;;;;;;;7.13;4.63;;;24.00;18.30;;;;;;5113011;28;20406;-67
2023/06/20 09:14:27;;;;;;;4.95;3.90;;;24.10;27.30;;;;;;5094709;28;20538;-66
2023/06/20 09:16:54;;;;;;;5.97;3.90;;;;;;;;;;5112596;28;20056;-67
2023/06/20 09:19:21;;;;;;;7.13;4.38;;;24.40;9.30;;;;;;5112836;28;20055;-65
2023/06/20 09:21:47;;;;;;;7.18;4.10;;;24.50;12.70;;;;;;5112615;28;20031;-66
2023/06/20 09:24:20;;;;;;;7.13;3.72;;;24.70;12.80;;;;;;5112975;28;20427;-67
2023/06/20 09:26:47;;;;;;;6.80;3.70;;;24.70;8.00;;;;;;5112911;28;20051;-66
2023/06/20 09:29:17;;;;;;;11.45;4.50;;;24.90;19.20;;;;;;5116504;28;20032;-66
2023/06/20 09:31:49;;;;;;;5.78;4.28;;;25.20;12.70;;;;;;5098265;28;20123;-66
2023/06/20 09:34:18;;;;;;;6.13;4.13;;;25.50;1.00;;;;;;5116335;28;20085;-66
2023/06/20 09:36:45;;;;;;;6.40;4.20;;;25.40;1.00;;;;;;5116345;28;20399;-67
2023/06/20 09:39:20;;;;;;;7.65;4.45;;;25.80;1.00;;;;;;5116491;28;20082;-66
2023/06/20 09:41:50;;;;;;;5.80;4.50;;;25.10;1.00;;;;;;5116560;28;20046;-71
2023/06/20 09:44:20;;;;;;;;;;;25.30;1.00;;;;;;5115572;28;20036;-66
2023/06/20 09:46:46;;;;;;;6.18;4.35;;;25.00;1.00;;;;;;5116593;28;19960;-66
2023/06/20 09:49:13;;;;;;;8.40;3.90;;;25.50;1.00;;;;;;5116327;28;20088;-66
2023/06/20 09:51:48;;;;;;;7.15;4.85;;;25.20;1.00;;;;;;5116504;28;20086;-66
2023/06/20 09:54:21;;;;;;;4.70;3.70;;;24.90;1.00;;;;;;5116503;28;20044;-66
2023/06/20 09:56:52;;;;;;;7.95;4.22;;;25.00;1.00;;;;;;5116094;28;20055;-68
2023/06/20 09:59:20;;;;;;;6.22;3.88;;;25.10;1.00;;;;;;5116268;28;20032;-68
2023/06/20 10:01:47;;;;;;;5.63;3.88;;;24.90;1.00;;;;;;5097758;28;20036;-66
2023/06/20 10:04:15;;;;;;;6.13;3.85;;;24.80;1.00;;;;;;5116195;28;20043;-67
2023/06/20 10:06:41;;;;;;;6.70;4.18;;;25.20;1.00;;;;;;5116279;28;20071;-67
2023/06/20 10:09:07;;;;;;;7.13;4.07;;;24.50;99.90;;;;;;5116173;28;20447;-66
2023/06/20 10:11:36;;;;;;;6.40;3.80;;;24.80;1.00;;;;;;5116149;28;20085;-66
2023/06/20 10:14:03;;;;;;;6.85;3.85;;;25.10;1.00;;;;;;5116143;28;20031;-66
2023/06/20 10:16:29;;;;;;;6.03;3.70;;;24.50;1.00;;;;;;5115646;28;20055;-66
2023/06/20 10:18:55;;;;;;;5.07;3.63;;;24.60;1.00;;;;;;5115633;28;20139;-67
2023/06/20 10:21:59;;;;;;;4.78;3.45;;;25.00;1.00;;;;;;5115955;28;20067;-66
2023/06/20 10:24:29;;;;;;;6.03;3.72;;;25.10;99.90;;;;;;5115961;28;20387;-67
2023/06/20 10:26:59;;;;;;;5.45;3.70;;;;;;;;;;5115818;28;20126;-66
2023/06/20 10:29:25;;;;;;;;;;;25.40;1.00;;;;;;5098012;28;20044;-71
2023/06/20 10:32:05;;;;;;;4.13;3.15;;;25.50;2.10;;;;;;5115784;28;20287;-67
2023/06/20 10:34:36;;;;;;;6.13;4.05;;;25.60;4.60;;;;;;5115775;28;20031;-67
2023/06/20 10:37:16;;;;;;;5.53;3.95;;;25.70;5.10;;;;;;5115761;28;20516;-67
2023/06/20 10:39:52;;;;;;;;;;;25.80;3.30;;;;;;5114825;28;20049;-66
2023/06/20 10:42:37;;;;;;;6.00;3.63;;;25.80;3.10;;;;;;5115534;28;20035;-66
2023/06/20 10:45:27;;;;;;;7.45;3.60;;;25.90;6.50;;;;;;5096881;28;20097;-66
2023/06/20 10:47:53;;;;;;;4.25;2.40;;;26.00;5.40;;;;;;5097936;28;20050;-65
2023/06/20 10:50:20;;;;;;;5.72;2.78;;;;;;;;;;5115105;28;20071;-66
2023/06/20 10:52:46;;;;;;;4.55;3.03;;;26.20;1.00;;;;;;5115198;28;20032;-66
2023/06/20 10:55:16;;;;;;;3.83;2.72;;;;;;;;;;5115761;28;20444;-64
2023/06/20 10:57:44;;;;;;;5.22;3.08;;;26.70;99.90;;;;;;5097108;28;20047;-65
2023/06/20 11:00:13;;;;;;;3.65;2.95;;;26.70;91.30;;;;;;5114978;28;20047;-65
2023/06/20 11:02:38;;;;;;;3.53;2.78;;;26.60;3.00;;;;;;5096448;28;20039;-64
2023/06/20 11:05:06;;;;;;;4.80;3.55;;;26.60;10.30;;;;;;5115130;28;20360;-64
2023/06/20 11:07:31;;;;;;;6.47;3.60;;;26.70;1.00;;;;;;5096792;28;20043;-65
2023/06/20 11:09:57;;;;;;;7.35;3.47;;;26.90;11.00;;;;;;5115041;28;20528;-64
2023/06/20 11:12:22;;;;;;;5.20;3.55;;;26.90;1.00;;;;;;5114895;28;20042;-64
2023/06/20 11:14:51;;;;;;;4.75;3.70;;;27.00;1.00;;;;;;5096479;28;20036;-65
2023/06/20 11:17:16;;;;;;;4.70;3.20;;;26.90;1.00;;;;;;5114456;28;20050;-65
2023/06/20 11:19:42;;;;;;;4.45;3.65;;;26.80;1.00;;;;;;5114718;28;20047;-65
2023/06/20 11:22:09;;;;;;;4.95;3.17;;;26.70;1.00;;;;;;5114773;28;20471;-65
2023/06/20 11:24:36;;;;;;;4.47;3.35;;;26.80;1.00;;;;;;5096257;28;20043;-64
2023/06/20 11:27:14;;;;;;;4.82;3.40;;;26.90;1.00;;;;;;5096123;28;20038;-65
2023/06/20 11:29:41;;;;;;;3.97;3.03;;;26.90;1.00;;;;;;5096361;28;20092;-65
2023/06/20 11:32:11;;;;;;;3.22;2.90;;;26.90;1.00;;;;;;5114308;28;20036;-65
2023/06/20 11:34:59;;;;;;;;;;;26.90;1.00;;;;;;5096664;28;20032;-64
2023/06/20 11:37:25;;;;;;;5.15;3.45;;;27.00;1.00;;;;;;5114409;28;19990;-65
2023/06/20 11:39:54;;;;;;;3.75;2.80;;;27.10;1.00;;;;;;5114325;28;20059;-65
2023/06/20 11:42:20;;;;;;;4.03;2.90;;;27.20;1.00;;;;;;5113924;28;20039;-64
2023/06/20 11:44:45;;;;;;;4.93;2.40;;;27.20;1.00;;;;;;5114044;28;20046;-64
2023/06/20 11:47:11;;;;;;;4.40;2.55;;;27.20;1.00;;;;;;5112721;28;20035;-66
2023/06/20 11:49:40;;;;;;;5.28;3.13;;;27.50;1.00;;;;;;5114002;28;20038;-64
2023/06/20 11:52:07;;;;;;;6.72;2.88;;;27.30;1.00;;;;;;5095791;28;20078;-65
2023/06/20 11:54:51;;;;;;;5.40;3.15;;;27.30;1.00;;;;;;5095503;28;20384;-65
2023/06/20 11:57:28;;;;;;;3.45;2.47;;;27.40;1.00;;;;;;5113646;28;20111;-65
2023/06/20 11:59:55;;;;;;;3.80;3.17;;;27.40;1.00;;;;;;5113865;28;20100;-66
2023/06/20 12:02:20;;;;;;;3.92;2.58;;;27.40;1.00;;;;;;5095686;28;20048;-64
2023/06/20 12:04:56;;;;;;;3.35;2.45;;;27.50;1.00;;;;;;5113498;28;20497;-65
2023/06/20 12:07:22;;;;;;;4.57;2.90;;;27.60;1.00;;;;;;5095639;28;20106;-65
2023/06/20 12:09:48;;;;;;;4.10;3.05;;;27.60;1.00;;;;;;5113732;28;20035;-65
2023/06/20 12:12:14;;;;;;;4.15;2.60;;;27.60;1.00;;;;;;5113697;28;20462;-64
2023/06/20 12:14:39;;;;;;;3.88;3.10;;;27.90;1.00;;;;;;5113699;28;20392;-64
2023/06/20 12:17:05;;;;;;;5.22;3.63;;;28.00;1.00;;;;;;5113273;28;20075;-69
2023/06/20 12:19:32;;;;;;;4.22;3.47;;;28.50;1.00;;;;;;5113235;28;20050;-65
2023/06/20 12:21:59;;;;;;;3.75;3.10;;;28.20;1.00;;;;;;5113295;28;20118;-65
2023/06/20 12:24:27;;;;;;;6.03;3.75;;;28.30;1.00;;;;;;5113566;28;20044;-65
2023/06/20 12:26:53;;;;;;;3.88;2.78;;;28.10;1.00;;;;;;5113115;28;20043;-66
2023/06/20 12:29:19;;;;;;;4.68;3.15;;;27.80;1.00;;;;;;5113458;28;20093;-67
2023/06/20 12:31:45;;;;;;;4.85;3.45;;;27.80;1.00;;;;;;5113432;28;20071;-64
2023/06/20 12:34:10;;;;;;;4.85;3.45;;;27.70;1.00;;;;;;5113065;28;20036;-68
2023/06/20 12:36:36;;;;;;;5.03;2.90;;;27.50;1.00;;;;;;5111755;28;20046;-65
2023/06/20 12:39:03;;;;;;;4.63;3.67;;;27.30;1.00;;;;;;5113259;28;20031;-64
2023/06/20 12:41:36;;;;;;;4.35;2.90;;;27.50;1.00;;;;;;5095074;28;20475;-64
2023/06/20 12:44:02;;;;;;;4.55;3.10;;;27.70;1.00;;;;;;5113040;28;20085;-64
2023/06/20 12:46:28;;;;;;;4.20;2.90;;;27.90;1.00;;;;;;5113240;28;20126;-66
2023/06/20 12:48:54;;;;;;;3.65;2.83;;;27.90;1.00;;;;;;5095156;28;20496;-64
2023/06/20 12:51:20;;;;;;;4.35;2.92;;;27.90;1.00;;;;;;5113043;28;20114;-65
2023/06/20 12:53:49;;;;;;;5.10;2.75;;;27.80;1.00;;;;;;5113333;28;20082;-69